Time;durP1;ratioP1;P1;durP2;ratioP2;P2;SDS_P1;SDS_P2;PMS_P1;PMS_P2;Temp;Humidity;BMP_temperature;BMP_pressure;BME280_temperature;BME280_humidity;BME280_pressure;Samples;Min_cycle;Max_cycle;Signal;HPM_P1;HPM_P2
2022/09/03 00:02:03;;;;;;;1.38;0.20;;;16.60;68.90;;;;;;5061362;28;20037;-50
2022/09/03 00:04:45;;;;;;;2.67;0.20;;;16.60;69.20;;;;;;5064176;28;20452;-53
2022/09/03 00:07:20;;;;;;;4.07;0.20;;;16.50;69.10;;;;;;5062786;28;20063;-49
2022/09/03 00:09:54;;;;;;;1.35;0.25;;;16.50;69.10;;;;;;5068114;28;20094;-50
2022/09/03 00:12:27;;;;;;;2.05;0.20;;;16.50;69.10;;;;;;5054041;28;20040;-49
2022/09/03 00:15:22;;;;;;;0.50;0.20;;;16.40;69.20;;;;;;5053881;28;20041;-49
2022/09/03 00:17:48;;;;;;;3.45;0.38;;;16.40;69.10;;;;;;5026246;28;20088;-50
2022/09/03 00:20:18;;;;;;;2.17;0.22;;;16.40;69.10;;;;;;5026632;28;20125;-49
2022/09/03 00:22:48;;;;;;;4.95;0.38;;;16.40;69.20;;;;;;5026423;28;20562;-53
2022/09/03 00:25:25;;;;;;;2.97;0.28;;;16.30;69.20;;;;;;5023406;28;20102;-52
2022/09/03 00:27:54;;;;;;;7.25;0.30;;;16.20;69.30;;;;;;5022584;28;20046;-52
2022/09/03 00:30:23;;;;;;;2.17;0.20;;;16.20;69.50;;;;;;5014098;28;20052;-52
2022/09/03 00:32:58;;;;;;;1.27;0.20;;;16.20;69.60;;;;;;5030454;28;20080;-53
2022/09/03 00:35:31;;;;;;;3.88;0.25;;;16.10;69.70;;;;;;5019387;28;20057;-53
2022/09/03 00:37:59;;;;;;;5.00;0.20;;;16.10;69.60;;;;;;5024972;28;20045;-52
2022/09/03 00:40:34;;;;;;;2.17;0.20;;;16.00;69.70;;;;;;5030769;28;20041;-50
2022/09/03 00:43:30;;;;;;;5.75;0.40;;;16.00;70.00;;;;;;5018863;28;20050;-50
2022/09/03 00:46:19;;;;;;;1.05;0.20;;;16.00;69.90;;;;;;4992815;28;20165;-51
2022/09/03 00:49:05;;;;;;;7.90;0.30;;;16.00;70.00;;;;;;5029909;28;20132;-52
2022/09/03 00:51:55;;;;;;;0.60;0.20;;;16.00;70.00;;;;;;5029729;28;20116;-51
2022/09/03 00:54:50;;;;;;;0.95;0.20;;;16.00;70.10;;;;;;5042045;28;20543;-53
2022/09/03 00:57:25;;;;;;;3.28;0.20;;;15.90;70.20;;;;;;5057635;28;20033;-53
2022/09/03 01:00:14;;;;;;;1.13;0.30;;;15.90;70.00;;;;;;5065382;28;20037;-54
2022/09/03 01:03:07;;;;;;;3.20;0.50;;;15.90;70.30;;;;;;5051848;28;20063;-52
2022/09/03 01:06:03;;;;;;;5.55;0.30;;;15.90;70.30;;;;;;5053168;28;20517;-52
2022/09/03 01:08:48;;;;;;;2.78;0.20;;;15.80;70.20;;;;;;5054756;28;20048;-50
2022/09/03 01:11:36;;;;;;;3.75;0.40;;;15.70;70.20;;;;;;5053181;28;20072;-51
2022/09/03 01:14:35;;;;;;;5.55;0.25;;;15.80;70.30;;;;;;5063373;28;20111;-53
2022/09/03 01:17:23;;;;;;;1.02;0.20;;;15.80;70.40;;;;;;5068373;28;20033;-53
2022/09/03 01:19:58;;;;;;;4.50;0.22;;;15.70;70.30;;;;;;5065921;28;20113;-52
2022/09/03 01:22:45;;;;;;;1.63;0.20;;;15.70;70.40;;;;;;5061867;28;20047;-54
2022/09/03 01:25:16;;;;;;;0.77;0.20;;;15.70;70.40;;;;;;5062416;28;20530;-53
2022/09/03 01:28:18;;;;;;;1.95;0.20;;;15.70;70.30;;;;;;5060656;28;20119;-53
2022/09/03 01:30:52;;;;;;;1.63;0.45;;;15.70;70.60;;;;;;5054049;28;20047;-53
2022/09/03 01:33:39;;;;;;;2.38;0.20;;;15.70;70.60;;;;;;5051779;28;20128;-54
2022/09/03 01:36:06;;;;;;;;;;;15.80;70.70;;;;;;5053191;28;20052;-52
2022/09/03 01:38:35;;;;;;;1.70;0.10;;;15.70;70.60;;;;;;5061757;28;19916;-53
2022/09/03 01:44:16;;;;;;;0.88;0.20;;;15.70;70.60;;;;;;5055409;28;20040;-52
2022/09/03 01:46:45;;;;;;;0.80;0.30;;;15.70;70.50;;;;;;5071673;28;20040;-54
2022/09/03 01:49:35;;;;;;;4.18;0.20;;;15.70;70.50;;;;;;5070982;28;20059;-53
2022/09/03 01:52:23;;;;;;;3.83;0.20;;;15.70;70.90;;;;;;5066221;28;20056;-54
2022/09/03 01:55:17;;;;;;;3.20;0.40;;;15.60;70.70;;;;;;5053477;28;20082;-52
2022/09/03 01:57:55;;;;;;;4.22;0.30;;;15.60;70.80;;;;;;5055144;28;20391;-54
2022/09/03 02:00:21;;;;;;;3.20;0.20;;;15.60;70.80;;;;;;5054299;28;20100;-54
2022/09/03 02:02:49;;;;;;;1.67;0.20;;;15.60;70.70;;;;;;5071772;28;20121;-51
2022/09/03 02:05:18;;;;;;;0.68;0.20;;;15.60;70.80;;;;;;5053055;28;20032;-53
2022/09/03 02:07:45;;;;;;;0.35;0.10;;;15.60;71.00;;;;;;5071501;28;20040;-54
2022/09/03 02:10:15;;;;;;;4.85;0.20;;;15.60;70.90;;;;;;5067640;28;20063;-51
2022/09/03 02:12:46;;;;;;;2.08;0.22;;;15.60;70.90;;;;;;5063361;28;20049;-48
2022/09/03 02:15:17;;;;;;;2.25;0.40;;;15.60;71.00;;;;;;5051368;28;20049;-51
2022/09/03 02:17:45;;;;;;;4.28;0.10;;;15.50;71.00;;;;;;5059239;28;20465;-52
2022/09/03 02:20:18;;;;;;;0.98;0.20;;;15.50;71.00;;;;;;5069926;28;20042;-53
2022/09/03 02:22:44;;;;;;;0.93;0.20;;;15.60;71.10;;;;;;5053776;28;20029;-52
2022/09/03 02:25:10;;;;;;;4.03;0.20;;;15.50;71.00;;;;;;5050934;28;20107;-51
2022/09/03 02:27:39;;;;;;;5.47;0.40;;;15.50;71.10;;;;;;5056084;28;20072;-48
2022/09/03 02:30:06;;;;;;;1.25;0.25;;;15.50;71.20;;;;;;5064370;28;20119;-53
2022/09/03 02:32:32;;;;;;;2.65;0.20;;;15.50;71.00;;;;;;5068691;28;20041;-53
2022/09/03 02:34:57;;;;;;;3.35;0.20;;;15.50;71.10;;;;;;5057160;28;20071;-50
2022/09/03 02:37:24;;;;;;;2.38;0.10;;;15.50;71.30;;;;;;5060740;28;20052;-51
2022/09/03 02:39:50;;;;;;;;;;;15.50;71.30;;;;;;5071203;28;20553;-49
2022/09/03 02:42:17;;;;;;;2.67;0.30;;;15.50;71.40;;;;;;5067716;28;19928;-54
2022/09/03 02:45:25;;;;;;;1.33;0.15;;;15.50;71.30;;;;;;5051141;28;20388;-52
2022/09/03 02:47:54;;;;;;;1.85;0.38;;;15.50;71.60;;;;;;5029180;28;20041;-51
2022/09/03 02:50:19;;;;;;;1.15;0.20;;;15.50;71.50;;;;;;5028380;28;20419;-54
2022/09/03 02:52:45;;;;;;;2.95;0.28;;;15.40;71.60;;;;;;5044727;28;20163;-47
2022/09/03 02:55:11;;;;;;;2.30;0.70;;;15.40;71.60;;;;;;5049466;28;20049;-47
2022/09/03 02:57:36;;;;;;;0.50;0.13;;;15.40;71.70;;;;;;5037342;28;20029;-52
2022/09/03 03:00:03;;;;;;;2.05;0.30;;;15.40;71.80;;;;;;5028619;28;20092;-48
2022/09/03 03:02:29;;;;;;;0.73;0.20;;;15.40;71.90;;;;;;5033738;28;20049;-49
2022/09/03 03:04:55;;;;;;;0.88;0.30;;;15.40;72.00;;;;;;5047483;28;20525;-49
2022/09/03 03:07:20;;;;;;;1.77;0.17;;;15.40;72.10;;;;;;5047008;28;20049;-49
2022/09/03 03:09:46;;;;;;;0.32;0.10;;;15.30;72.00;;;;;;5033359;28;20045;-49
2022/09/03 03:12:12;;;;;;;3.25;0.10;;;15.30;72.10;;;;;;5029431;28;20443;-47
2022/09/03 03:14:37;;;;;;;0.57;0.40;;;15.30;72.10;;;;;;5029656;28;20046;-51
2022/09/03 03:17:03;;;;;;;0.40;0.15;;;15.20;72.20;;;;;;5046981;28;20040;-47
2022/09/03 03:19:28;;;;;;;0.45;0.20;;;15.20;72.30;;;;;;5029660;28;20112;-49
2022/09/03 03:21:54;;;;;;;1.45;0.20;;;15.20;72.40;;;;;;5042564;28;20045;-50
2022/09/03 03:24:20;;;;;;;1.45;0.10;;;15.10;72.50;;;;;;5063531;28;20502;-49
2022/09/03 03:26:45;;;;;;;3.92;0.10;;;15.10;72.50;;;;;;5070292;28;20040;-49
2022/09/03 03:29:16;;;;;;;6.28;0.20;;;15.10;72.50;;;;;;5067669;28;20569;-50
2022/09/03 03:31:41;;;;;;;2.20;0.28;;;15.10;72.70;;;;;;5050459;28;20045;-50
2022/09/03 03:34:07;;;;;;;3.78;0.40;;;15.10;72.70;;;;;;5067388;28;20062;-49
2022/09/03 03:36:33;;;;;;;4.63;0.22;;;15.10;72.80;;;;;;5059925;28;20075;-48
2022/09/03 03:38:59;;;;;;;0.43;0.15;;;15.10;72.90;;;;;;5052638;28;20067;-50
2022/09/03 03:41:33;;;;;;;5.55;0.30;;;15.00;72.90;;;;;;5067486;28;20044;-49
2022/09/03 03:44:01;;;;;;;3.55;0.32;;;15.00;73.00;;;;;;5067976;28;20115;-54
2022/09/03 03:46:45;;;;;;;0.40;0.20;;;15.00;73.10;;;;;;5068831;28;20051;-54
2022/09/03 03:49:11;;;;;;;1.33;0.20;;;14.90;73.30;;;;;;5051322;28;20044;-50
2022/09/03 03:51:37;;;;;;;0.52;0.15;;;14.90;73.20;;;;;;5055450;28;20085;-54
2022/09/03 03:54:04;;;;;;;2.15;0.20;;;14.90;73.30;;;;;;5069386;28;20040;-54
2022/09/03 03:56:30;;;;;;;7.60;0.20;;;14.90;73.40;;;;;;5068877;28;20048;-53
2022/09/03 03:58:57;;;;;;;0.60;0.20;;;14.80;73.50;;;;;;5054756;28;20395;-50
2022/09/03 04:01:25;;;;;;;0.70;0.20;;;14.80;73.60;;;;;;5050477;28;20033;-54
2022/09/03 04:03:53;;;;;;;3.65;0.20;;;14.80;73.70;;;;;;5050969;28;20384;-52
2022/09/03 04:06:19;;;;;;;0.30;0.20;;;14.70;73.70;;;;;;5057957;28;20040;-50
2022/09/03 04:08:46;;;;;;;0.35;0.15;;;14.70;73.70;;;;;;5050164;28;20392;-50
2022/09/03 04:11:18;;;;;;;2.28;0.20;;;14.70;74.00;;;;;;5050978;28;20040;-54
2022/09/03 04:13:45;;;;;;;2.78;0.20;;;14.60;74.10;;;;;;5066398;28;20049;-54
2022/09/03 04:16:17;;;;;;;1.92;0.22;;;14.60;74.20;;;;;;5067194;28;20076;-50
2022/09/03 04:18:43;;;;;;;3.95;0.20;;;14.50;74.30;;;;;;5067467;28;20102;-52
2022/09/03 04:21:10;;;;;;;;;;;14.50;74.30;;;;;;5068082;28;20209;-52
2022/09/03 04:23:38;;;;;;;0.70;0.30;;;14.50;74.50;;;;;;5052794;28;19916;-50
2022/09/03 04:26:06;;;;;;;1.65;0.20;;;14.50;74.60;;;;;;5067762;28;20036;-49
2022/09/03 04:28:32;;;;;;;0.57;0.20;;;14.40;74.70;;;;;;5052436;28;20051;-53
2022/09/03 04:31:07;;;;;;;;;;;14.40;74.90;;;;;;5051427;28;20108;-50
2022/09/03 04:33:34;;;;;;;7.38;0.30;;;14.40;75.20;;;;;;5049085;28;20505;-51
2022/09/03 04:36:11;;;;;;;0.93;0.30;;;14.30;75.10;;;;;;5079361;28;20044;-50
2022/09/03 04:38:39;;;;;;;1.60;0.40;;;14.30;75.30;;;;;;5054384;28;20454;-52
2022/09/03 04:41:07;;;;;;;3.83;0.30;;;14.30;75.40;;;;;;5058214;28;20037;-54
2022/09/03 04:43:33;;;;;;;0.50;0.20;;;14.30;75.60;;;;;;5062908;28;20092;-52
2022/09/03 04:46:00;;;;;;;0.88;0.30;;;14.30;75.60;;;;;;5055477;28;20029;-53
2022/09/03 04:48:27;;;;;;;1.27;0.20;;;14.30;75.60;;;;;;5051934;28;20158;-48
2022/09/03 04:50:53;;;;;;;1.02;0.30;;;14.30;75.70;;;;;;5050262;28;20454;-53
2022/09/03 04:53:19;;;;;;;1.80;0.40;;;14.30;75.80;;;;;;5060359;28;20047;-54
2022/09/03 04:55:45;;;;;;;0.68;0.25;;;14.30;76.00;;;;;;5064867;28;20045;-50
2022/09/03 04:58:10;;;;;;;0.85;0.30;;;14.20;75.90;;;;;;5064922;28;20047;-48
2022/09/03 05:00:37;;;;;;;0.60;0.30;;;14.20;76.00;;;;;;5066666;28;20523;-53
2022/09/03 05:03:04;;;;;;;0.55;0.30;;;14.20;76.00;;;;;;5067506;28;20453;-54
2022/09/03 05:05:32;;;;;;;1.60;0.30;;;14.20;76.20;;;;;;5069529;28;20383;-49
2022/09/03 05:08:01;;;;;;;2.67;0.38;;;14.30;76.20;;;;;;5060734;28;20111;-50
2022/09/03 05:10:27;;;;;;;1.02;0.30;;;14.30;76.30;;;;;;5054793;28;20496;-48
2022/09/03 05:13:05;;;;;;;3.35;0.65;;;14.30;76.40;;;;;;5050848;28;20032;-51
2022/09/03 05:15:35;;;;;;;1.88;0.30;;;14.30;76.60;;;;;;5054194;28;20041;-50
2022/09/03 05:18:01;;;;;;;1.25;0.30;;;14.30;76.50;;;;;;5065112;28;20040;-52
2022/09/03 05:20:31;;;;;;;;;;;14.30;76.60;;;;;;5064395;28;20134;-50
2022/09/03 05:23:01;;;;;;;0.73;0.30;;;14.30;76.90;;;;;;5067474;28;19920;-48
2022/09/03 05:25:27;;;;;;;0.68;0.40;;;14.30;76.60;;;;;;5066962;28;20037;-50
2022/09/03 05:27:53;;;;;;;2.50;0.43;;;14.40;76.80;;;;;;5052595;28;20041;-53
2022/09/03 05:30:21;;;;;;;1.08;0.35;;;14.40;76.60;;;;;;5064489;28;20293;-53
2022/09/03 05:32:47;;;;;;;3.42;0.30;;;14.40;77.00;;;;;;5066326;28;20033;-49
2022/09/03 05:35:13;;;;;;;3.03;0.30;;;14.40;76.80;;;;;;5067494;28;20518;-51
2022/09/03 05:37:38;;;;;;;3.90;0.50;;;14.40;76.90;;;;;;5061990;28;20525;-53
2022/09/03 05:40:05;;;;;;;0.82;0.35;;;14.50;76.90;;;;;;5053626;28;20037;-51
2022/09/03 05:42:31;;;;;;;;;;;14.50;77.00;;;;;;5059985;28;20036;-51
2022/09/03 05:44:56;;;;;;;1.77;0.35;;;14.50;77.20;;;;;;5132370;22;19952;-54
2022/09/03 05:47:22;;;;;;;1.63;0.30;;;14.60;77.00;;;;;;5044603;28;20581;-50
2022/09/03 05:49:48;;;;;;;2.45;0.50;;;14.60;77.00;;;;;;5036878;28;20026;-52
2022/09/03 05:52:14;;;;;;;1.45;0.40;;;14.70;77.00;;;;;;5060592;28;20412;-54
2022/09/03 05:54:39;;;;;;;1.27;0.60;;;14.70;77.40;;;;;;5031959;28;20041;-52
2022/09/03 05:57:05;;;;;;;4.93;0.50;;;14.80;76.90;;;;;;5032349;28;20574;-54
2022/09/03 05:59:30;;;;;;;1.58;0.52;;;14.90;77.00;;;;;;5032123;28;20068;-52
2022/09/03 06:01:56;;;;;;;2.50;0.50;;;14.90;77.00;;;;;;5032404;28;20077;-52
2022/09/03 06:04:22;;;;;;;2.78;0.30;;;14.90;76.80;;;;;;5031902;28;20412;-52
2022/09/03 06:06:48;;;;;;;1.85;0.57;;;15.00;76.80;;;;;;5033163;28;20048;-54
2022/09/03 06:09:17;;;;;;;1.67;0.40;;;15.00;76.90;;;;;;5031326;28;20045;-56
2022/09/03 06:11:43;;;;;;;3.15;0.40;;;15.10;76.90;;;;;;5031898;28;20041;-52
2022/09/03 06:14:12;;;;;;;1.13;0.50;;;15.10;76.90;;;;;;5032200;28;20046;-52
2022/09/03 06:16:40;;;;;;;2.90;0.40;;;15.20;77.00;;;;;;5033719;28;20041;-52
2022/09/03 06:19:09;;;;;;;3.15;0.50;;;15.20;76.90;;;;;;5044595;28;20032;-55
2022/09/03 06:21:41;;;;;;;8.43;1.23;;;15.30;76.80;;;;;;5042006;28;20048;-56
2022/09/03 06:24:09;;;;;;;3.47;0.50;;;15.40;76.90;;;;;;5034757;28;20048;-54
2022/09/03 06:26:35;;;;;;;4.95;0.57;;;15.50;77.00;;;;;;5038503;28;20041;-54
2022/09/03 06:29:01;;;;;;;12.32;0.90;;;15.50;77.10;;;;;;5044852;28;20621;-54
2022/09/03 06:31:26;;;;;;;6.13;0.75;;;15.60;77.10;;;;;;5043769;28;20138;-50
2022/09/03 06:33:53;;;;;;;3.58;0.60;;;15.70;76.80;;;;;;5046130;28;20112;-50
2022/09/03 06:36:21;;;;;;;4.07;0.85;;;15.80;77.00;;;;;;5051880;28;20072;-56
2022/09/03 06:38:49;;;;;;;1.33;0.40;;;15.90;76.80;;;;;;5051626;28;20509;-55
2022/09/03 06:41:23;;;;;;;6.38;0.60;;;16.00;76.60;;;;;;5051407;28;20036;-52
2022/09/03 06:43:54;;;;;;;8.20;0.40;;;16.00;76.50;;;;;;5034031;28;20045;-55
2022/09/03 06:46:22;;;;;;;3.85;0.52;;;16.10;76.30;;;;;;5031388;28;20037;-53
2022/09/03 06:48:49;;;;;;;2.00;0.40;;;16.20;75.80;;;;;;5031287;28;20081;-52
2022/09/03 06:51:26;;;;;;;1.95;0.30;;;16.20;75.70;;;;;;5031783;28;20034;-55
2022/09/03 06:53:55;;;;;;;12.60;0.40;;;16.30;75.50;;;;;;5041476;28;20070;-54
2022/09/03 06:56:25;;;;;;;3.60;0.40;;;16.30;75.50;;;;;;5047271;28;20037;-49
2022/09/03 06:58:55;;;;;;;24.70;1.42;;;16.40;75.20;;;;;;5031955;28;20079;-50
2022/09/03 07:01:32;;;;;;;8.55;0.40;;;16.50;75.20;;;;;;5032344;28;20053;-51
2022/09/03 07:04:03;;;;;;;5.13;0.73;;;16.50;75.10;;;;;;5030799;28;20510;-52
2022/09/03 07:06:39;;;;;;;5.20;0.47;;;16.60;75.00;;;;;;5034129;28;20037;-54
2022/09/03 07:09:06;;;;;;;5.07;0.60;;;16.80;75.10;;;;;;5043097;28;20111;-53
2022/09/03 07:11:34;;;;;;;4.78;0.52;;;16.80;74.60;;;;;;5049717;28;20033;-52
2022/09/03 07:14:04;;;;;;;4.80;1.08;;;16.90;75.00;;;;;;5042338;28;20045;-54
2022/09/03 07:16:33;;;;;;;7.30;0.52;;;17.00;74.10;;;;;;5048693;28;20473;-53
2022/09/03 07:18:59;;;;;;;6.45;0.70;;;17.10;74.00;;;;;;5048863;28;20522;-52
2022/09/03 07:21:27;;;;;;;3.63;0.40;;;17.10;73.80;;;;;;5050459;28;20495;-52
2022/09/03 07:23:54;;;;;;;0.90;0.45;;;17.20;73.60;;;;;;5037068;28;20033;-52
2022/09/03 07:26:29;;;;;;;6.07;0.82;;;17.20;73.20;;;;;;5047728;28;20403;-53
2022/09/03 07:28:55;;;;;;;1.42;0.25;;;17.30;73.10;;;;;;5044213;28;20039;-53
2022/09/03 07:31:29;;;;;;;2.10;0.50;;;17.40;73.30;;;;;;5043974;28;20037;-52
2022/09/03 07:33:56;;;;;;;1.83;0.30;;;17.50;73.20;;;;;;5030118;28;20410;-52
2022/09/03 07:36:23;;;;;;;4.38;0.30;;;17.60;73.10;;;;;;5042648;28;20040;-54
2022/09/03 07:38:49;;;;;;;4.85;0.82;;;17.70;72.50;;;;;;5045067;28;20045;-52
2022/09/03 07:41:15;;;;;;;0.60;0.30;;;17.80;72.60;;;;;;5041927;28;20037;-54
2022/09/03 07:43:45;;;;;;;6.30;0.40;;;17.90;72.00;;;;;;5039729;28;20107;-54
2022/09/03 07:46:14;;;;;;;1.92;0.35;;;18.00;72.40;;;;;;5041899;28;20084;-52
2022/09/03 07:48:40;;;;;;;6.72;0.80;;;18.10;72.30;;;;;;5035074;28;20376;-54
2022/09/03 07:51:06;;;;;;;1.35;0.40;;;18.20;71.60;;;;;;5031514;28;20037;-52
2022/09/03 07:53:33;;;;;;;;;;;18.20;71.30;;;;;;5034671;28;20087;-52
2022/09/03 07:56:02;;;;;;;2.20;0.30;;;18.30;71.30;;;;;;5039499;28;19964;-51
2022/09/03 07:58:29;;;;;;;28.85;2.25;;;18.50;71.70;;;;;;5031275;28;20492;-52
2022/09/03 08:00:56;;;;;;;3.42;0.30;;;18.50;71.10;;;;;;5045257;28;20374;-53
2022/09/03 08:03:22;;;;;;;3.28;0.30;;;18.60;70.90;;;;;;5031414;28;20048;-52
2022/09/03 08:05:47;;;;;;;0.38;0.30;;;18.70;71.40;;;;;;5047429;28;20044;-55
2022/09/03 08:08:14;;;;;;;7.25;0.40;;;18.80;70.30;;;;;;5049572;28;20049;-52
2022/09/03 08:10:40;;;;;;;0.40;0.30;;;18.90;71.00;;;;;;5050293;28;20047;-54
2022/09/03 08:13:06;;;;;;;3.22;0.50;;;19.00;71.00;;;;;;5049622;28;20045;-53
2022/09/03 08:15:33;;;;;;;5.88;0.47;;;19.00;70.10;;;;;;5050367;28;20037;-55
2022/09/03 08:17:59;;;;;;;10.13;0.68;;;19.10;70.00;;;;;;5050616;28;20116;-52
2022/09/03 08:20:26;;;;;;;1.95;0.55;;;19.20;70.50;;;;;;5050601;28;20069;-52
2022/09/03 08:22:52;;;;;;;8.75;0.45;;;19.30;70.30;;;;;;5047947;28;20081;-57
2022/09/03 08:25:18;;;;;;;3.30;0.45;;;19.40;69.40;;;;;;5049964;28;20033;-55
2022/09/03 08:27:43;;;;;;;7.63;0.30;;;19.50;69.70;;;;;;5048669;28;20464;-52
2022/09/03 08:30:10;;;;;;;2.40;0.30;;;19.50;69.30;;;;;;5048983;28;20041;-52
2022/09/03 08:32:39;;;;;;;2.05;0.35;;;19.70;69.00;;;;;;5048886;28;20334;-54
2022/09/03 08:35:08;;;;;;;3.70;0.28;;;19.70;69.20;;;;;;5048118;28;20517;-52
2022/09/03 08:37:34;;;;;;;2.72;0.20;;;19.80;68.90;;;;;;5049690;28;20068;-52
2022/09/03 08:39:59;;;;;;;;;;;19.90;68.80;;;;;;5050349;28;20112;-53
2022/09/03 08:42:45;;;;;;;1.40;0.20;;;20.00;68.30;;;;;;5049984;28;20000;-53
2022/09/03 08:45:15;;;;;;;8.98;0.52;;;20.10;68.60;;;;;;5049692;28;20419;-53
2022/09/03 08:48:09;;;;;;;0.95;0.43;;;20.30;68.80;;;;;;5050805;28;20120;-53
2022/09/03 08:50:42;;;;;;;8.20;0.47;;;20.40;68.50;;;;;;5053829;28;20041;-52
2022/09/03 08:53:40;;;;;;;12.35;0.65;;;20.50;67.90;;;;;;5053020;28;20059;-53
2022/09/03 08:56:19;;;;;;;1.25;0.35;;;20.60;67.10;;;;;;5051954;28;20041;-52
2022/09/03 08:58:45;;;;;;;3.70;0.30;;;20.60;67.30;;;;;;5053452;28;20103;-54
2022/09/03 09:01:36;;;;;;;2.25;0.20;;;20.70;67.20;;;;;;5053315;28;20037;-52
2022/09/03 09:04:14;;;;;;;1.83;0.20;;;20.80;67.30;;;;;;5052729;28;20418;-54
2022/09/03 09:06:51;;;;;;;4.85;0.30;;;20.90;67.10;;;;;;5053460;28;20040;-53
2022/09/03 09:09:20;;;;;;;2.60;0.30;;;21.00;67.20;;;;;;5053336;28;20549;-54
2022/09/03 09:11:58;;;;;;;1.63;0.20;;;21.10;66.70;;;;;;5053293;28;20099;-52
2022/09/03 09:14:34;;;;;;;2.78;0.40;;;21.20;67.30;;;;;;5052487;28;20045;-53
2022/09/03 09:17:00;;;;;;;23.13;1.83;;;21.30;67.00;;;;;;5051362;28;20496;-52
2022/09/03 09:19:25;;;;;;;;;;;21.40;66.20;;;;;;5053544;28;20040;-55
2022/09/03 09:21:58;;;;;;;1.13;0.43;;;21.40;67.20;;;;;;5053158;28;20349;-54
2022/09/03 09:24:27;;;;;;;4.53;0.57;;;21.60;66.90;;;;;;5052408;28;20049;-51
2022/09/03 09:26:59;;;;;;;3.55;0.40;;;21.70;66.80;;;;;;5053010;28;20037;-52
2022/09/03 09:29:31;;;;;;;1.40;0.30;;;21.70;65.40;;;;;;5052348;28;20073;-52
2022/09/03 09:31:57;;;;;;;1.45;0.40;;;21.80;65.10;;;;;;5052902;28;20055;-54
2022/09/03 09:34:23;;;;;;;;;;;21.90;66.20;;;;;;5052509;28;20044;-52
2022/09/03 09:36:53;;;;;;;1.08;0.22;;;22.00;65.60;;;;;;5053153;28;19917;-52
2022/09/03 09:39:20;;;;;;;1.80;0.25;;;22.10;65.90;;;;;;5053073;28;20169;-52
2022/09/03 09:42:08;;;;;;;1.42;0.20;;;22.20;65.70;;;;;;5052895;28;20106;-52
2022/09/03 09:44:34;;;;;;;1.30;0.10;;;22.30;65.80;;;;;;5052072;28;20044;-52
2022/09/03 09:47:12;;;;;;;3.85;0.30;;;22.40;64.70;;;;;;5052611;28;20045;-53
2022/09/03 09:49:57;;;;;;;1.98;0.47;;;22.50;64.80;;;;;;5052413;28;20051;-50
2022/09/03 09:52:27;;;;;;;1.90;0.30;;;22.70;64.30;;;;;;5052102;28;20040;-53
2022/09/03 09:55:06;;;;;;;3.10;0.25;;;22.80;64.90;;;;;;5051643;28;20045;-53
2022/09/03 09:57:33;;;;;;;1.98;0.30;;;22.90;64.00;;;;;;5052584;28;20041;-50
2022/09/03 10:00:12;;;;;;;2.10;0.30;;;22.90;63.90;;;;;;5051752;28;20110;-50
2022/09/03 10:02:41;;;;;;;1.65;0.30;;;23.00;63.00;;;;;;5051424;28;20049;-52
2022/09/03 10:05:25;;;;;;;6.75;0.40;;;23.10;62.60;;;;;;5052140;28;20118;-50
2022/09/03 10:08:03;;;;;;;2.08;0.20;;;23.10;62.70;;;;;;5052243;28;20052;-52
2022/09/03 10:10:34;;;;;;;0.70;0.20;;;23.30;63.00;;;;;;5052048;28;20040;-54
2022/09/03 10:13:08;;;;;;;5.60;0.20;;;23.40;63.00;;;;;;5050611;28;20483;-54
2022/09/03 10:15:50;;;;;;;3.90;0.20;;;23.50;63.80;;;;;;5052162;28;20457;-53
2022/09/03 10:18:27;;;;;;;2.00;0.10;;;23.60;61.70;;;;;;5051162;28;20151;-51
2022/09/03 10:21:14;;;;;;;9.13;0.28;;;23.70;60.90;;;;;;5051878;28;20037;-50
2022/09/03 10:23:49;;;;;;;;;;;23.70;60.80;;;;;;5051382;28;20456;-52
2022/09/03 10:26:19;;;;;;;3.70;0.20;;;23.80;61.30;;;;;;5051879;28;19923;-50
2022/09/03 10:28:49;;;;;;;1.48;0.30;;;23.80;60.60;;;;;;5051922;28;20075;-50
2022/09/03 10:31:37;;;;;;;4.80;0.25;;;23.90;60.60;;;;;;5051965;28;20119;-50
2022/09/03 10:34:38;;;;;;;11.98;0.55;;;24.00;60.80;;;;;;5050717;28;20097;-50
2022/09/03 10:37:25;;;;;;;3.33;0.20;;;24.00;60.50;;;;;;5051733;28;20037;-50
2022/09/03 10:40:09;;;;;;;;;;;24.00;60.50;;;;;;5052284;28;20033;-51
2022/09/03 10:42:59;;;;;;;1.98;0.20;;;24.10;59.70;;;;;;5051563;28;19952;-54
2022/09/03 10:45:46;;;;;;;3.40;0.10;;;24.30;60.40;;;;;;5051079;28;20507;-52
2022/09/03 10:48:37;;;;;;;6.13;0.20;;;24.30;59.50;;;;;;5050153;28;20084;-53
2022/09/03 10:51:04;;;;;;;1.40;0.25;;;24.40;58.50;;;;;;5050162;28;20500;-53
2022/09/03 10:53:55;;;;;;;10.43;0.73;;;24.40;58.90;;;;;;5050673;28;20044;-51
2022/09/03 10:56:46;;;;;;;1.33;0.13;;;24.50;58.80;;;;;;5051104;28;20045;-54
2022/09/03 10:59:23;;;;;;;1.83;0.35;;;24.50;57.60;;;;;;5050929;28;20103;-50
2022/09/03 11:02:16;;;;;;;4.25;0.20;;;24.60;58.40;;;;;;5051128;28;20377;-51
2022/09/03 11:05:11;;;;;;;2.53;0.47;;;24.60;57.00;;;;;;5050584;28;20041;-54
2022/09/03 11:07:41;;;;;;;1.20;0.20;;;24.60;57.30;;;;;;5050105;28;20070;-52
2022/09/03 11:10:39;;;;;;;3.67;0.20;;;24.50;57.50;;;;;;5050514;28;20045;-55
2022/09/03 11:13:11;;;;;;;2.00;0.20;;;24.60;56.80;;;;;;5050350;28;20488;-51
2022/09/03 11:15:49;;;;;;;8.38;0.55;;;24.70;56.30;;;;;;5050243;28;20056;-51
2022/09/03 11:18:49;;;;;;;2.75;0.25;;;24.70;56.50;;;;;;5051055;28;20041;-54
2022/09/03 11:21:20;;;;;;;4.75;0.55;;;24.70;56.70;;;;;;5050708;28;20119;-52
2022/09/03 11:24:00;;;;;;;3.22;0.40;;;24.70;56.00;;;;;;5050303;28;20059;-51
2022/09/03 11:26:27;;;;;;;4.13;0.20;;;24.80;56.10;;;;;;5050777;28;20039;-51
2022/09/03 11:29:13;;;;;;;1.10;0.20;;;24.80;56.30;;;;;;5050715;28;20415;-50
2022/09/03 11:32:00;;;;;;;0.38;0.10;;;24.90;56.50;;;;;;5050677;28;20069;-52
2022/09/03 11:34:45;;;;;;;4.80;0.40;;;24.90;56.00;;;;;;5049617;28;20048;-51
2022/09/03 11:37:24;;;;;;;4.72;0.63;;;24.90;55.80;;;;;;5049152;28;20372;-51
2022/09/03 11:40:10;;;;;;;6.90;0.20;;;25.00;56.10;;;;;;5050560;28;20068;-52
2022/09/03 11:42:40;;;;;;;4.53;0.20;;;25.00;55.30;;;;;;5049275;28;20399;-54
2022/09/03 11:45:14;;;;;;;1.75;0.25;;;25.10;56.00;;;;;;5049410;28;20056;-50
2022/09/03 11:47:44;;;;;;;1.50;0.30;;;25.10;55.60;;;;;;5050694;28;20037;-54
2022/09/03 11:50:19;;;;;;;2.40;0.13;;;25.10;55.10;;;;;;5050818;28;20041;-51
2022/09/03 11:52:46;;;;;;;4.87;0.30;;;25.20;55.20;;;;;;5050458;28;20049;-50
2022/09/03 11:55:24;;;;;;;2.55;0.30;;;25.20;55.60;;;;;;5049559;28;20090;-51
2022/09/03 11:57:49;;;;;;;1.05;0.20;;;25.20;55.30;;;;;;5050345;28;20398;-51
2022/09/03 12:00:21;;;;;;;8.07;0.20;;;25.30;55.30;;;;;;5050330;28;20039;-51
2022/09/03 12:02:55;;;;;;;14.48;0.60;;;25.30;54.80;;;;;;5048921;28;20541;-54
2022/09/03 12:05:51;;;;;;;5.00;0.20;;;25.40;55.10;;;;;;5048978;28;20077;-54
2022/09/03 12:08:47;;;;;;;1.45;0.20;;;25.40;54.60;;;;;;5050251;28;20041;-53
2022/09/03 12:11:34;;;;;;;1.35;0.10;;;25.40;54.40;;;;;;5048662;28;20040;-52
2022/09/03 12:14:21;;;;;;;;;;;25.40;54.50;;;;;;5049546;28;20392;-51
2022/09/03 12:17:18;;;;;;;1.65;0.30;;;25.40;54.30;;;;;;5050055;28;19921;-51
2022/09/03 12:19:54;;;;;;;2.75;0.20;;;25.50;54.00;;;;;;5050071;28;20041;-53
2022/09/03 12:22:23;;;;;;;2.17;0.30;;;25.50;54.00;;;;;;5049197;28;20040;-52
2022/09/03 12:24:50;;;;;;;4.30;0.50;;;25.60;54.30;;;;;;5053484;28;20499;-53
2022/09/03 12:27:24;;;;;;;2.35;0.10;;;25.70;54.60;;;;;;5054043;28;20499;-52
2022/09/03 12:30:15;;;;;;;5.75;0.40;;;25.70;54.40;;;;;;5054081;28;20047;-50
2022/09/03 12:32:42;;;;;;;1.55;0.10;;;25.80;54.50;;;;;;5052184;28;20072;-52
2022/09/03 12:35:19;;;;;;;1.40;0.20;;;25.80;54.40;;;;;;5053621;28;20099;-52
2022/09/03 12:37:44;;;;;;;1.23;0.20;;;25.80;54.60;;;;;;5053787;28;20041;-52
2022/09/03 12:40:25;;;;;;;9.55;0.30;;;25.90;54.30;;;;;;5053810;28;20025;-53
2022/09/03 12:42:51;;;;;;;3.03;0.20;;;25.90;54.30;;;;;;5053421;28;20033;-53
2022/09/03 12:45:25;;;;;;;1.70;0.10;;;25.80;53.80;;;;;;5053034;28;20044;-51
2022/09/03 12:47:52;;;;;;;2.47;0.22;;;25.80;54.40;;;;;;5053650;28;20048;-51
2022/09/03 12:50:23;;;;;;;1.67;0.20;;;25.90;54.50;;;;;;5052480;28;20036;-51
2022/09/03 12:52:53;;;;;;;2.55;0.17;;;26.00;54.20;;;;;;5053477;28;20060;-51
2022/09/03 12:55:47;;;;;;;2.08;0.15;;;26.00;53.70;;;;;;5053356;28;20116;-51
2022/09/03 12:58:32;;;;;;;1.02;0.17;;;26.00;53.80;;;;;;5053545;28;20052;-50
2022/09/03 13:01:26;;;;;;;2.22;0.20;;;26.10;54.10;;;;;;5053785;28;20041;-54
2022/09/03 13:03:56;;;;;;;2.53;0.20;;;26.10;53.70;;;;;;5053113;28;20041;-52
2022/09/03 13:06:50;;;;;;;0.80;0.20;;;26.10;54.30;;;;;;5053543;28;20063;-51
2022/09/03 13:09:21;;;;;;;1.60;0.10;;;26.00;53.30;;;;;;5053553;28;20045;-52
2022/09/03 13:11:48;;;;;;;2.45;0.30;;;26.00;53.90;;;;;;5053280;28;20052;-51
2022/09/03 13:14:16;;;;;;;9.90;0.30;;;26.10;54.30;;;;;;5052392;28;20449;-51
2022/09/03 13:16:44;;;;;;;52.22;3.65;;;26.20;54.20;;;;;;5052819;28;20043;-51
2022/09/03 13:19:45;;;;;;;6.13;0.20;;;26.20;53.90;;;;;;5053052;28;20053;-54
2022/09/03 13:22:21;;;;;;;2.05;0.40;;;26.20;53.90;;;;;;5053087;28;20045;-52
2022/09/03 13:25:13;;;;;;;0.60;0.20;;;26.20;54.00;;;;;;5052056;28;20094;-54